sensor_id;sensor_type;location;lat;lon;timestamp;temperature;humidity
27779;DHT22;30234;48.090;11.464;2023-06-10T00:01:23;13.40;99.90
27779;DHT22;30234;48.090;11.464;2023-06-10T00:05:23;13.20;99.90
27779;DHT22;30234;48.090;11.464;2023-06-10T00:09:24;12.90;99.90
27779;DHT22;30234;48.090;11.464;2023-06-10T00:13:26;13.10;99.90
27779;DHT22;30234;48.090;11.464;2023-06-10T00:17:27;13.00;99.90
27779;DHT22;30234;48.090;11.464;2023-06-10T00:21:30;12.70;99.90
27779;DHT22;30234;48.090;11.464;2023-06-10T00:25:37;12.70;99.90
27779;DHT22;30234;48.090;11.464;2023-06-10T00:29:38;12.60;99.90
27779;DHT22;30234;48.090;11.464;2023-06-10T00:33:39;12.60;99.90
27779;DHT22;30234;48.090;11.464;2023-06-10T00:37:40;12.60;99.90
27779;DHT22;30234;48.090;11.464;2023-06-10T00:41:41;12.60;99.90
27779;DHT22;30234;48.090;11.464;2023-06-10T00:45:42;12.70;99.90
27779;DHT22;30234;48.090;11.464;2023-06-10T00:49:43;12.80;99.90
27779;DHT22;30234;48.090;11.464;2023-06-10T00:53:44;13.10;99.90
27779;DHT22;30234;48.090;11.464;2023-06-10T00:57:46;12.50;99.90
27779;DHT22;30234;48.090;11.464;2023-06-10T01:01:49;12.60;99.90
27779;DHT22;30234;48.090;11.464;2023-06-10T01:10:44;12.30;99.90
27779;DHT22;30234;48.090;11.464;2023-06-10T01:14:50;13.50;99.90
27779;DHT22;30234;48.090;11.464;2023-06-10T01:18:52;12.00;99.90
27779;DHT22;30234;48.090;11.464;2023-06-10T01:22:56;12.00;99.90
27779;DHT22;30234;48.090;11.464;2023-06-10T01:27:00;12.10;99.90
27779;DHT22;30234;48.090;11.464;2023-06-10T01:31:15;12.10;99.90
27779;DHT22;30234;48.090;11.464;2023-06-10T01:35:22;12.00;99.90
27779;DHT22;30234;48.090;11.464;2023-06-10T01:39:26;12.00;99.90
27779;DHT22;30234;48.090;11.464;2023-06-10T01:43:27;11.80;99.90
27779;DHT22;30234;48.090;11.464;2023-06-10T01:47:28;11.90;99.90
27779;DHT22;30234;48.090;11.464;2023-06-10T01:51:29;12.60;99.90
27779;DHT22;30234;48.090;11.464;2023-06-10T01:55:32;11.60;99.90
27779;DHT22;30234;48.090;11.464;2023-06-10T01:59:32;12.20;99.90
27779;DHT22;30234;48.090;11.464;2023-06-10T02:03:33;11.40;99.90
27779;DHT22;30234;48.090;11.464;2023-06-10T02:07:34;11.30;99.90
27779;DHT22;30234;48.090;11.464;2023-06-10T02:11:35;11.30;99.90
27779;DHT22;30234;48.090;11.464;2023-06-10T02:15:36;11.40;99.90
27779;DHT22;30234;48.090;11.464;2023-06-10T02:19:37;11.20;99.90
27779;DHT22;30234;48.090;11.464;2023-06-10T02:23:43;11.10;99.90
27779;DHT22;30234;48.090;11.464;2023-06-10T02:27:43;11.00;99.90
27779;DHT22;30234;48.090;11.464;2023-06-10T02:31:44;11.00;99.90
27779;DHT22;30234;48.090;11.464;2023-06-10T02:35:45;11.30;99.90
27779;DHT22;30234;48.090;11.464;2023-06-10T02:39:46;11.20;99.90
27779;DHT22;30234;48.090;11.464;2023-06-10T02:43:47;12.80;99.90
27779;DHT22;30234;48.090;11.464;2023-06-10T02:47:48;11.10;99.90
27779;DHT22;30234;48.090;11.464;2023-06-10T02:51:50;10.90;99.90
27779;DHT22;30234;48.090;11.464;2023-06-10T02:55:54;11.00;99.90
27779;DHT22;30234;48.090;11.464;2023-06-10T02:59:54;10.70;99.90
27779;DHT22;30234;48.090;11.464;2023-06-10T03:03:55;11.60;99.90
27779;DHT22;30234;48.090;11.464;2023-06-10T03:07:56;11.10;99.90
27779;DHT22;30234;48.090;11.464;2023-06-10T03:11:57;11.10;99.90
27779;DHT22;30234;48.090;11.464;2023-06-10T03:15:58;10.80;99.90
27779;DHT22;30234;48.090;11.464;2023-06-10T03:19:59;10.60;99.90
27779;DHT22;30234;48.090;11.464;2023-06-10T03:24:00;10.60;99.90
27779;DHT22;30234;48.090;11.464;2023-06-10T03:28:01;10.70;99.90
27779;DHT22;30234;48.090;11.464;2023-06-10T03:32:02;10.90;99.90
27779;DHT22;30234;48.090;11.464;2023-06-10T03:36:03;10.80;99.90
27779;DHT22;30234;48.090;11.464;2023-06-10T03:40:05;10.70;99.90
27779;DHT22;30234;48.090;11.464;2023-06-10T03:44:07;10.60;99.90
27779;DHT22;30234;48.090;11.464;2023-06-10T03:48:08;10.80;99.90
27779;DHT22;30234;48.090;11.464;2023-06-10T03:52:09;10.90;99.90
27779;DHT22;30234;48.090;11.464;2023-06-10T03:56:10;11.10;99.90
27779;DHT22;30234;48.090;11.464;2023-06-10T04:00:11;11.30;99.90
27779;DHT22;30234;48.090;11.464;2023-06-10T04:04:16;11.50;99.90
27779;DHT22;30234;48.090;11.464;2023-06-10T04:08:17;11.50;99.90
27779;DHT22;30234;48.090;11.464;2023-06-10T04:12:18;12.50;99.90
27779;DHT22;30234;48.090;11.464;2023-06-10T04:16:20;13.90;99.90
27779;DHT22;30234;48.090;11.464;2023-06-10T04:20:21;13.40;99.90
27779;DHT22;30234;48.090;11.464;2023-06-10T04:24:22;16.00;99.90
27779;DHT22;30234;48.090;11.464;2023-06-10T04:28:23;16.30;99.90
27779;DHT22;30234;48.090;11.464;2023-06-10T04:32:24;17.10;99.90
27779;DHT22;30234;48.090;11.464;2023-06-10T04:36:25;16.60;99.90
27779;DHT22;30234;48.090;11.464;2023-06-10T04:40:26;16.80;99.90
27779;DHT22;30234;48.090;11.464;2023-06-10T04:44:27;17.10;99.90
27779;DHT22;30234;48.090;11.464;2023-06-10T04:48:28;17.80;99.90
27779;DHT22;30234;48.090;11.464;2023-06-10T04:52:29;17.60;99.90
27779;DHT22;30234;48.090;11.464;2023-06-10T04:56:30;19.50;99.90
27779;DHT22;30234;48.090;11.464;2023-06-10T05:00:31;22.40;99.90
27779;DHT22;30234;48.090;11.464;2023-06-10T05:04:32;23.70;99.90
27779;DHT22;30234;48.090;11.464;2023-06-10T05:08:33;25.40;99.80
27779;DHT22;30234;48.090;11.464;2023-06-10T05:12:34;26.20;94.20
27779;DHT22;30234;48.090;11.464;2023-06-10T05:16:35;27.20;91.70
27779;DHT22;30234;48.090;11.464;2023-06-10T05:20:36;28.10;87.40
27779;DHT22;30234;48.090;11.464;2023-06-10T05:24:37;28.80;81.70
27779;DHT22;30234;48.090;11.464;2023-06-10T05:28:38;29.50;77.40
27779;DHT22;30234;48.090;11.464;2023-06-10T05:32:39;30.40;72.60
27779;DHT22;30234;48.090;11.464;2023-06-10T05:36:40;30.60;69.40
27779;DHT22;30234;48.090;11.464;2023-06-10T05:40:41;30.80;68.20
27779;DHT22;30234;48.090;11.464;2023-06-10T05:44:42;30.20;69.00
27779;DHT22;30234;48.090;11.464;2023-06-10T05:48:43;30.20;68.90
27779;DHT22;30234;48.090;11.464;2023-06-10T05:52:43;30.60;68.00
27779;DHT22;30234;48.090;11.464;2023-06-10T05:56:44;31.50;66.50
27779;DHT22;30234;48.090;11.464;2023-06-10T06:00:45;29.90;69.40
27779;DHT22;30234;48.090;11.464;2023-06-10T06:04:46;28.90;69.20
27779;DHT22;30234;48.090;11.464;2023-06-10T06:08:47;28.30;73.10
27779;DHT22;30234;48.090;11.464;2023-06-10T06:12:48;28.00;73.70
27779;DHT22;30234;48.090;11.464;2023-06-10T06:16:49;28.80;74.00
27779;DHT22;30234;48.090;11.464;2023-06-10T06:20:50;29.40;71.70
27779;DHT22;30234;48.090;11.464;2023-06-10T06:24:51;29.00;72.90
27779;DHT22;30234;48.090;11.464;2023-06-10T06:28:51;30.40;70.60
27779;DHT22;30234;48.090;11.464;2023-06-10T06:32:52;30.90;69.50
27779;DHT22;30234;48.090;11.464;2023-06-10T06:36:53;31.40;68.40
27779;DHT22;30234;48.090;11.464;2023-06-10T06:40:54;31.80;66.50
27779;DHT22;30234;48.090;11.464;2023-06-10T06:44:55;31.40;66.00
27779;DHT22;30234;48.090;11.464;2023-06-10T06:48:56;31.80;67.20
27779;DHT22;30234;48.090;11.464;2023-06-10T06:52:56;31.70;65.70
27779;DHT22;30234;48.090;11.464;2023-06-10T06:56:57;31.40;64.50
27779;DHT22;30234;48.090;11.464;2023-06-10T07:00:58;28.20;71.20
27779;DHT22;30234;48.090;11.464;2023-06-10T07:05:01;26.40;76.00
27779;DHT22;30234;48.090;11.464;2023-06-10T07:09:02;25.50;81.20
27779;DHT22;30234;48.090;11.464;2023-06-10T07:13:03;27.20;78.40
27779;DHT22;30234;48.090;11.464;2023-06-10T07:17:04;29.50;72.20
27779;DHT22;30234;48.090;11.464;2023-06-10T07:21:05;29.90;69.90
27779;DHT22;30234;48.090;11.464;2023-06-10T07:25:06;29.30;71.40
27779;DHT22;30234;48.090;11.464;2023-06-10T07:29:07;30.10;70.30
27779;DHT22;30234;48.090;11.464;2023-06-10T07:33:08;30.10;68.60
27779;DHT22;30234;48.090;11.464;2023-06-10T07:37:11;29.80;68.50
27779;DHT22;30234;48.090;11.464;2023-06-10T07:41:12;30.70;67.30
27779;DHT22;30234;48.090;11.464;2023-06-10T07:45:13;30.40;65.40
27779;DHT22;30234;48.090;11.464;2023-06-10T07:49:14;29.70;66.90
27779;DHT22;30234;48.090;11.464;2023-06-10T07:53:15;31.60;64.70
27779;DHT22;30234;48.090;11.464;2023-06-10T07:57:15;31.10;64.20
27779;DHT22;30234;48.090;11.464;2023-06-10T08:01:16;29.60;63.90
27779;DHT22;30234;48.090;11.464;2023-06-10T08:05:17;28.60;69.60
27779;DHT22;30234;48.090;11.464;2023-06-10T08:09:18;29.30;68.80
27779;DHT22;30234;48.090;11.464;2023-06-10T08:13:19;30.80;63.20
27779;DHT22;30234;48.090;11.464;2023-06-10T08:17:20;29.50;63.70
27779;DHT22;30234;48.090;11.464;2023-06-10T08:21:21;29.40;66.40
27779;DHT22;30234;48.090;11.464;2023-06-10T08:25:22;29.30;64.70
27779;DHT22;30234;48.090;11.464;2023-06-10T08:29:23;29.20;66.10
27779;DHT22;30234;48.090;11.464;2023-06-10T08:33:24;30.00;65.90
27779;DHT22;30234;48.090;11.464;2023-06-10T08:37:25;30.70;62.20
27779;DHT22;30234;48.090;11.464;2023-06-10T08:41:28;30.40;63.70
27779;DHT22;30234;48.090;11.464;2023-06-10T08:45:30;31.50;62.30
27779;DHT22;30234;48.090;11.464;2023-06-10T08:49:34;32.50;61.40
27779;DHT22;30234;48.090;11.464;2023-06-10T08:53:50;33.30;57.80
27779;DHT22;30234;48.090;11.464;2023-06-10T08:58:00;30.90;60.90
27779;DHT22;30234;48.090;11.464;2023-06-10T09:02:02;31.40;61.30
27779;DHT22;30234;48.090;11.464;2023-06-10T09:06:05;30.30;62.60
27779;DHT22;30234;48.090;11.464;2023-06-10T09:10:07;31.70;61.40
27779;DHT22;30234;48.090;11.464;2023-06-10T09:14:08;32.70;57.40
27779;DHT22;30234;48.090;11.464;2023-06-10T09:18:09;31.80;57.50
27779;DHT22;30234;48.090;11.464;2023-06-10T09:22:10;31.60;59.30
27779;DHT22;30234;48.090;11.464;2023-06-10T09:26:11;33.00;57.30
27779;DHT22;30234;48.090;11.464;2023-06-10T09:30:24;33.50;56.00
27779;DHT22;30234;48.090;11.464;2023-06-10T09:34:28;32.60;58.30
27779;DHT22;30234;48.090;11.464;2023-06-10T09:38:30;31.30;58.30
27779;DHT22;30234;48.090;11.464;2023-06-10T09:42:34;29.00;62.30
27779;DHT22;30234;48.090;11.464;2023-06-10T09:46:35;26.80;69.80
27779;DHT22;30234;48.090;11.464;2023-06-10T09:50:43;29.10;67.50
27779;DHT22;30234;48.090;11.464;2023-06-10T09:54:45;31.70;62.10
27779;DHT22;30234;48.090;11.464;2023-06-10T09:58:46;30.90;59.50
27779;DHT22;30234;48.090;11.464;2023-06-10T10:02:52;29.50;62.80
27779;DHT22;30234;48.090;11.464;2023-06-10T10:06:54;31.20;61.60
27779;DHT22;30234;48.090;11.464;2023-06-10T10:10:56;31.40;58.30
27779;DHT22;30234;48.090;11.464;2023-06-10T10:14:58;31.60;59.00
27779;DHT22;30234;48.090;11.464;2023-06-10T10:19:18;31.40;58.10
27779;DHT22;30234;48.090;11.464;2023-06-10T10:23:27;29.90;59.20
27779;DHT22;30234;48.090;11.464;2023-06-10T10:28:11;31.60;58.70
27779;DHT22;30234;48.090;11.464;2023-06-10T10:32:13;30.80;56.00
27779;DHT22;30234;48.090;11.464;2023-06-10T10:36:15;28.10;61.30
27779;DHT22;30234;48.090;11.464;2023-06-10T10:40:16;28.00;64.50
27779;DHT22;30234;48.090;11.464;2023-06-10T10:44:18;30.20;59.70
27779;DHT22;30234;48.090;11.464;2023-06-10T10:48:20;32.40;56.40
27779;DHT22;30234;48.090;11.464;2023-06-10T10:52:21;34.00;53.40
27779;DHT22;30234;48.090;11.464;2023-06-10T10:56:27;32.30;54.60
27779;DHT22;30234;48.090;11.464;2023-06-10T11:00:32;31.80;56.80
27779;DHT22;30234;48.090;11.464;2023-06-10T11:04:34;30.80;57.00
27779;DHT22;30234;48.090;11.464;2023-06-10T11:16:47;27.70;61.30
27779;DHT22;30234;48.090;11.464;2023-06-10T11:24:52;31.80;55.40
27779;DHT22;30234;48.090;11.464;2023-06-10T11:32:54;32.10;55.60
27779;DHT22;30234;48.090;11.464;2023-06-10T11:36:56;33.10;54.10
27779;DHT22;30234;48.090;11.464;2023-06-10T11:40:58;33.40;53.20
27779;DHT22;30234;48.090;11.464;2023-06-10T11:44:58;32.30;53.40
27779;DHT22;30234;48.090;11.464;2023-06-10T11:49:03;30.40;57.00
27779;DHT22;30234;48.090;11.464;2023-06-10T11:53:08;29.30;59.00
27779;DHT22;30234;48.090;11.464;2023-06-10T11:57:09;28.50;60.30
27779;DHT22;30234;48.090;11.464;2023-06-10T12:01:10;28.80;59.10
